• Join FlightAware (Why Join?)
  • Login
  • US Flag 
12:43PM EST


 

Airport Tracker/Info


-or-


 

Live Flight TrackerFlight Track Log ✈ UAL906 ✈ 12-Jul-2013 ✈ EDDF / FRA - KORD

Flight Track Log - Related Links

Times and Time Zones

All times are in EDT time to prevent confusion due to time zone crossing. See the UAL906 flight status page for this flight to view local times or setup timezone preferences in your user account.

Time Position Orientation Groundspeed Altitude Reporting Facility
EDT Latitude Longitude Course Direction KTS MPH feet Rate Location/Type
07:08AM 50.0530 8.6200 71° East 184 212 1,700  Level FlightAware
07:08AM 50.0610 8.6560 71° East 188 216 2,600 1,800 Climbing FlightAware
07:09AM 50.0710 8.7010 71° East 197 227 3,600 1,560 Climbing FlightAware
07:09AM 50.0790 8.7160 50° Northeast 209 241 3,800 720 Climbing FlightAware
07:09AM 50.0900 8.7250 28° Northeast 225 259 3,900 1,320 Climbing FlightAware
07:10AM 50.1220 8.7450 22° Northeast 246 283 4,800 1,500 Climbing FlightAware
07:10AM 50.1530 8.7660 23° Northeast 270 311 5,400 1,860 Climbing FlightAware
07:11AM 50.2130 8.7750 North 276 318 7,400 2,460 Climbing FlightAware
07:12AM 50.2560 8.7500 340° North 274 315 8,900 2,760 Climbing FlightAware
07:12AM 50.2860 8.7240 331° Northwest 278 320 10,000 1,560 Climbing FlightAware
07:13AM 50.3370 8.6760 329° Northwest 309 356 10,800 1,260 Climbing FlightAware
07:13AM 50.3900 8.6280 330° Northwest 333 383 11,800 1,500 Climbing FlightAware
07:14AM 50.4290 8.5630 313° West 354 407 12,700 1,440 Climbing FlightAware
07:15AM 50.4610 8.4800 301° West 369 425 13,600 1,680 Climbing FlightAware
07:15AM 50.5020 8.3710 301° West 375 432 15,100 2,160 Climbing FlightAware
07:16AM 50.5370 8.2770 300° West 370 426 16,700 1,980 Climbing FlightAware
07:17AM 50.5760 8.1750 301° West 377 434 17,900 1,620 Climbing FlightAware
07:17AM 50.6120 8.0800 301° West 385 443 19,000 1,500 Climbing FlightAware
07:18AM 50.6510 7.9740 300° West 392 451 20,000 1,380 Climbing FlightAware
07:19AM 50.6840 7.8850 300° West 397 457 20,900 1,380 Climbing FlightAware
07:19AM 50.7200 7.7860 300° West 403 464 21,800 1,440 Climbing FlightAware
07:20AM 50.7580 7.6840 301° West 406 467 22,800 1,380 Climbing FlightAware
07:21AM 50.8010 7.5660 300° West 411 473 23,800 1,320 Climbing FlightAware
07:22AM 50.8390 7.4610 300° West 416 479 24,700 1,140 Climbing FlightAware
07:22AM 50.8810 7.3460 300° West 425 489 25,400 660 Climbing FlightAware
07:23AM 50.9210 7.2370 300° West 443 510 25,700 420 Climbing FlightAware
07:24AM 50.9610 7.1190 298° West 450 518 26,000 840 Climbing FlightAware
07:24AM 50.9880 7.0000 290° West 454 522 26,800 1,140 Climbing FlightAware
07:25AM 51.0130 6.8600 286° West 459 528 27,600 1,020 Climbing FlightAware
07:26AM 51.0330 6.7420 285° West 463 533 28,200 1,020 Climbing FlightAware
07:26AM 51.0550 6.6120 285° West 465 535 28,900 1,140 Climbing FlightAware
07:27AM 51.0790 6.4700 285° West 464 534 29,800 1,020 Climbing FlightAware
07:28AM 51.0970 6.3600 285° West 466 536 30,300 840 Climbing FlightAware
07:28AM 51.1210 6.2170 285° West 471 542 30,900 900 Climbing FlightAware
07:29AM 51.1400 6.0990 284° West 471 542 31,500 1,080 Climbing FlightAware
07:30AM 51.1660 5.9440 285° West 468 539 32,400 1,020 Climbing FlightAware
07:30AM 51.1810 5.7960 279° West 467 537 33,100 840 Climbing FlightAware
07:31AM 51.1820 5.6660 271° West 467 537 33,600 660 Climbing FlightAware
07:32AM 51.1820 5.5200 270° West 471 542 34,000 240 Climbing FlightAware
07:32AM 51.1800 5.3640 269° West 473 544 34,000  Level FlightAware
07:33AM 51.1820 5.2130 271° West 473 544 34,000  Level FlightAware
07:34AM 51.1960 5.0540 278° West 474 545 34,000  Level FlightAware
07:35AM 51.2100 4.9120 279° West 475 547 34,000 -120 Level FlightAware
07:35AM 51.2248 4.7556 279° West 482 555 33,900  Descending FlightAware UK
07:35AM 51.2250 4.7540 279° West 476 548 34,000 120 Climbing FlightAware
07:36AM 51.2380 4.6190 279° West 477 549 34,000  Level FlightAware
07:37AM 51.2515 4.4848 279° West 486 559 34,000  Level FlightAware UK
07:37AM 51.2520 4.4780 279° West 477 549 34,000  Level FlightAware
07:37AM 51.2660 4.3300 279° West 477 549 34,000  Level FlightAware
07:38AM 51.2810 4.1740 279° West 478 550 34,000  Level FlightAware
07:39AM 51.2950 4.0210 278° West 478 550 34,000  Level FlightAware
07:40AM 51.3070 3.8870 278° West 478 550 34,000  Level FlightAware
07:40AM 51.3190 3.7530 278° West 478 550 34,000  Level FlightAware
07:41AM 51.3350 3.5720 278° West 480 552 34,000  Level FlightAware
07:42AM 51.3442 3.4590 278° West 480 552 34,000  Level FlightAware UK
07:42AM 51.3450 3.4570 278° West 481 554 34,000  Level FlightAware
07:42AM 51.3549 3.3320 278° West 482 555 34,000  Level FlightAware UK
07:42AM 51.3580 3.2970 278° West 482 555 34,000  Level FlightAware
07:43AM 51.3720 3.1360 278° West 482 555 34,000  Level FlightAware
07:44AM 51.3830 3.0000 277° West 482 555 34,000  Level FlightAware
07:44AM 51.3960 2.8400 277° West 482 555 34,000  Level FlightAware
07:45AM 51.4070 2.7040 277° West 481 554 34,000  Level FlightAware
07:46AM 51.4180 2.5720 278° West 481 554 34,000  Level FlightAware
07:47AM 51.4310 2.3950 277° West 480 552 34,000  Level FlightAware
07:47AM 51.4406 2.2731 277° West 482 555 34,000  Level FlightAware UK
07:47AM 51.4410 2.2650 277° West 480 552 34,000 -180 Level FlightAware
07:48AM 51.4502 2.1462 277° West 480 552 33,900  Descending FlightAware UK
07:48AM 51.4540 2.0910 277° West 481 554 34,000 60 Climbing FlightAware
07:49AM 51.4644 1.9563 277° West 482 555 34,000  Level FlightAware UK
07:49AM 51.4640 1.9600 277° West 482 555 34,000  Level FlightAware
07:49AM 51.4760 1.7950 277° West 483 556 34,000  Level FlightAware
07:50AM 51.4860 1.6580 277° West 480 552 34,000  Level FlightAware
07:51AM 51.5000 1.5160 279° West 479 551 34,000  Level FlightAware
07:51AM 51.5100 1.3610 276° West 482 555 34,000  Level FlightAware
07:52AM 51.5120 1.2120 271° West 483 556 34,000  Level FlightAware
07:53AM 51.5130 1.0700 271° West 482 555 34,000 -120 Level FlightAware
07:53AM 51.5129 0.9363 271° West 482 555 33,900  Descending FlightAware UK
07:54AM 51.5130 0.9150 271° West 481 554 34,000 120 Climbing FlightAware
07:54AM 51.5130 0.7750 270° West 479 551 34,000  Level FlightAware
07:55AM 51.5120 0.6200 269° West 478 550 34,000 -120 Level FlightAware
07:56AM 51.5115 0.4915 269° West 478 550 33,900  Descending FlightAware UK
07:56AM 51.5110 0.4650 269° West 478 550 34,000 60 Climbing FlightAware
07:56AM 51.5110 0.3210 270° West 477 549 34,000 360 Level FlightAware
07:57AM 51.5100 0.1820 269° West 476 548 34,500 540 Climbing FlightAware
07:58AM 51.5088 0.0485 269° West 476 548 34,700 360 Climbing FlightAware UK
07:58AM 51.5090 0.0250 269° West 480 552 34,800 660 Climbing FlightAware
07:58AM 51.5070 -0.1360 269° West 481 554 35,300 600 Climbing FlightAware
07:59AM 51.5060 -0.2790 269° West 479 551 35,700 540 Climbing FlightAware
08:00AM 51.5040 -0.3970 268° West 480 552 36,000 180 Climbing FlightAware
08:01AM 51.5020 -0.5750 269° West 479 551 36,000  Level FlightAware
08:01AM 51.5000 -0.7180 269° West 478 550 36,000  Level FlightAware
08:02AM 51.4980 -0.8680 269° West 477 549 36,000  Level FlightAware
08:03AM 51.5060 -1.0030 269° West 474 545 36,000 -180 Level FlightAware
08:03AM 51.5091 -1.0308 269° West 472 543 35,900  Descending FlightAware UK
08:03AM 51.5226 -1.1339 269° West 472 543 36,000 180 Climbing FlightAware UK
08:03AM 51.5230 -1.1380 269° West 475 547 36,000  Level FlightAware
08:04AM 51.5390 -1.2680 281° West 475 547 36,000  Level FlightAware
08:05AM 51.5570 -1.4080 282° West 475 547 36,000  Level FlightAware
08:05AM 51.5730 -1.5370 281° West 477 549 36,000  Level FlightAware
08:06AM 51.5855 -1.6728 281° West 472 543 36,000  Level FlightAware UK
08:06AM 51.5860 -1.6890 281° West 478 550 36,000  Level FlightAware
08:07AM 51.5960 -1.8330 276° West 479 551 36,000  Level FlightAware
08:07AM 51.6050 -1.9950 275° West 480 552 36,000  Level FlightAware
08:08AM 51.6120 -2.1160 275° West 481 554 36,000  Level FlightAware
08:09AM 51.6220 -2.2910 275° West 482 555 36,000  Level FlightAware
08:09AM 51.6300 -2.4410 275° West 483 556 36,000  Level FlightAware
08:10AM 51.6370 -2.5690 275° West 484 557 36,000  Level FlightAware
08:11AM 51.6467 -2.7597 275° West 474 545 36,000  Level FlightAware UK
08:11AM 51.6470 -2.7680 275° West 485 558 36,000  Level FlightAware
08:12AM 51.6570 -2.9600 275° West 485 558 36,000  Level FlightAware
08:12AM 51.6640 -3.1010 275° West 486 559 36,000  Level FlightAware
08:13AM 51.6713 -3.2547 275° West 474 545 36,000  Level FlightAware UK
08:13AM 51.6710 -3.2590 275° West 487 560 36,000  Level FlightAware
08:14AM 51.6780 -3.4030 275° West 488 562 36,000  Level FlightAware
08:14AM 51.6840 -3.5340 274° West 489 563 36,000  Level FlightAware
08:15AM 51.6912 -3.6886 274° West 476 548 36,000  Level FlightAware UK
08:15AM 51.6920 -3.7070 274° West 490 564 36,000  Level FlightAware
08:16AM 51.6990 -3.8730 274° West 490 564 36,000  Level FlightAware
08:17AM 51.7050 -4.0190 274° West 490 564 36,000  Level FlightAware
08:17AM 51.7110 -4.1690 274° West 489 563 36,000  Level FlightAware
08:18AM 51.7160 -4.2970 274° West 489 563 36,000  Level FlightAware
08:19AM 51.7214 -4.4283 274° West 476 548 36,000  Level FlightAware UK
08:19AM 51.7230 -4.4610 274° West 489 563 36,000  Level FlightAware
08:19AM 51.7270 -4.5950 273° West 490 564 36,000  Level FlightAware
08:20AM 51.7330 -4.7400 274° West 491 565 36,000  Level FlightAware
08:21AM 51.7377 -4.8864 274° West 474 545 36,000  Level FlightAware UK
08:21AM 51.7380 -4.8870 274° West 491 565 36,000  Level FlightAware
08:21AM 51.7420 -5.0300 273° West 492 566 36,000  Level FlightAware
08:22AM 51.7480 -5.1870 273° West 493 567 36,000  Level FlightAware
08:22AM 51.7478 -5.1936 273° West 474 545 36,000  Level FlightAware UK
08:23AM 51.7510 -5.3037 273° West 474 545 36,000  Level FlightAware UK
08:23AM 51.7530 -5.3570 273° West 494 568 36,000  Level FlightAware
08:23AM 51.7570 -5.4980 273° West 494 568 36,000  Level FlightAware
08:24AM 51.7610 -5.6660 272° West 495 570 36,000  Level FlightAware
08:25AM 51.7650 -5.7850 272° West 496 571 36,000  Level FlightAware
08:25AM 51.7647 -5.7891 272° West 474 545 36,000 -240 Level FlightAware UK
08:25AM 51.7674 -5.8997 272° West 476 548 35,900  Descending FlightAware UK
08:25AM 51.7690 -5.9430 272° West 496 571 36,000 60 Climbing FlightAware
08:26AM 51.7720 -6.0930 272° West 497 572 36,000  Level FlightAware
08:27AM 51.7759 -6.2537 272° West 478 550 36,000  Level FlightAware UK
08:27AM 51.7760 -6.2510 272° West 497 572 36,000 -240 Level FlightAware
08:27AM 51.7781 -6.3646 272° West 478 550 35,900  Descending FlightAware UK
08:28AM 51.7790 -6.4090 272° West 497 572 36,000 60 Climbing FlightAware
08:28AM 51.7800 -6.5700 271° West 497 572 36,000  Level FlightAware
08:29AM 51.7740 -6.7130 271° West 496 571 36,000  Level FlightAware
08:29AM 51.7741 -6.7193 271° West 476 548 36,000  Level FlightAware UK
08:29AM 51.7675 -6.8297 271° West 478 550 36,000  Level FlightAware UK
08:30AM 51.7620 -6.9190 271° West 496 571 36,000  Level FlightAware
08:31AM 51.7526 -7.0720 271° West 478 550 36,000  Level FlightAware UK
08:31AM 51.7530 -7.0710 271° West 495 570 36,000 -180 Level FlightAware
08:31AM 51.7446 -7.2033 271° West 478 550 35,900  Descending FlightAware UK
08:31AM 51.7450 -7.2040 271° West 495 570 36,000 120 Climbing FlightAware
08:32AM 51.7360 -7.3410 264° West 494 568 36,000  Level FlightAware
08:32AM 51.7270 -7.4840 264° West 494 568 36,000  Level FlightAware
08:33AM 51.7175 -7.6421 264° West 476 548 36,000  Level FlightAware UK
08:33AM 51.7180 -7.6270 264° West 494 568 36,000  Level FlightAware
08:34AM 51.7104 -7.7516 264° West 476 548 36,000  Level FlightAware UK
08:34AM 51.7080 -7.7850 264° West 494 568 36,000  Level FlightAware
08:35AM 51.6980 -7.9330 264° West 493 567 36,000  Level FlightAware
08:35AM 51.6885 -8.0800 264° West 478 550 36,000  Level FlightAware UK
08:35AM 51.6870 -8.1010 264° West 493 567 36,000  Level FlightAware
08:36AM 51.6770 -8.2420 264° West 493 567 36,000  Level FlightAware
08:37AM 51.6660 -8.3930 263° West 492 566 36,000  Level FlightAware
08:37AM 51.6555 -8.5374 263° West 480 552 36,000  Level FlightAware UK
08:37AM 51.6560 -8.5360 263° West 491 565 36,000  Level FlightAware
08:38AM 51.6450 -8.6820 263° West 490 564 36,000  Level FlightAware
08:39AM 51.6340 -8.8250 263° West 489 563 36,000  Level FlightAware
08:39AM 51.6230 -8.9707 263° West 480 552 36,000  Level FlightAware UK
08:39AM 51.6220 -8.9840 263° West 487 560 36,000  Level FlightAware
08:40AM 51.6120 -9.1170 263° West 486 559 36,000  Level FlightAware
08:41AM 51.5990 -9.2810 263° West 486 559 36,000  Level FlightAware
08:41AM 51.5880 -9.4190 263° West 484 557 36,000  Level FlightAware
08:42AM 51.5750 -9.5810 263° West 484 557 36,000  Level FlightAware
08:43AM 51.5630 -9.7250 262° West 484 557 36,000  Level FlightAware
08:44AM 51.5500 -9.8790 262° West 484 557 36,000  Level FlightAware
08:44AM 51.5380 -10.0230 262° West 484 557 36,000  Level FlightAware
08:45AM 51.5260 -10.1630 262° West 485 558 36,000  Level FlightAware
08:46AM 51.5120 -10.3250 262° West 486 559 36,000  Level FlightAware
08:47AM 51.4950 -10.5180 262° West 488 562 36,000  Level FlightAware
08:47AM 51.4770 -10.7060 261° West 489 563 36,000  Level FlightAware
08:48AM 51.4650 -10.8350 262° West 489 563 36,000  Level FlightAware
08:49AM 51.4480 -11.0250 262° West 490 564 36,000  Level FlightAware
08:50AM 51.4310 -11.2030 261° West 491 565 36,000  Level FlightAware
08:50AM 51.4180 -11.3340 261° West 489 563 36,000  Level FlightAware
08:51AM 51.4010 -11.5090 261° West 491 565 36,000  Level FlightAware
08:52AM 51.3770 -11.7330 260° West 491 565 36,000  Level FlightAware
08:53AM 51.3650 -11.8430 260° West 491 565 36,000  Level FlightAware
08:54AM 51.3490 -11.9890 260° West 491 565 36,000  Level FlightAware
08:54AM 51.3330 -12.1380 260° West 491 565 36,000  Level FlightAware
08:55AM 51.3200 -12.2480 259° West 491 565 36,000  Level FlightAware
08:56AM 51.3080 -12.3630 261° West 491 565 36,000  Level FlightAware
08:56AM 51.2920 -12.5090 260° West 491 565 36,000  Level FlightAware
08:57AM 51.2790 -12.6190 259° West 491 565 36,000  Level FlightAware
08:58AM 51.2630 -12.7640 260° West 491 565 36,000  Level FlightAware
08:59AM 51.2480 -12.9040 260° West 491 565 36,000  Level FlightAware
08:59AM 51.2320 -13.0500 260° West 491 565 36,000  Level FlightAware
09:00AM 51.2190 -13.1620 260° West 491 565 36,000  Level FlightAware
09:01AM 51.2070 -13.2780 261° West 491 565 36,000  Level FlightAware
09:01AM 51.1940 -13.3870 259° West 491 565 36,000  Level FlightAware
09:04AM 51.2849 -13.7836 290° West  Level Estimated
09:05AM 51.3258 -13.9644 290° West  Level Estimated
09:06AM 51.3664 -14.1455 290° West  Level Estimated
09:07AM 51.4068 -14.3270 290° West  Level Estimated
09:08AM 51.4468 -14.5087 290° West  Level Estimated
09:09AM 51.4866 -14.6908 289° West  Level Estimated
09:10AM 51.5261 -14.8732 289° West  Level Estimated
09:11AM 51.5653 -15.0559 289° West  Level Estimated
09:12AM 51.6042 -15.2389 289° West  Level Estimated
09:13AM 51.6428 -15.4223 289° West  Level Estimated
09:14AM 51.6812 -15.6059 289° West  Level Estimated
09:15AM 51.7193 -15.7899 289° West  Level Estimated
09:16AM 51.7570 -15.9741 288° West  Level Estimated
09:17AM 51.7945 -16.1587 288° West  Level Estimated
09:18AM 51.8317 -16.3436 288° West  Level Estimated
09:19AM 51.8686 -16.5288 288° West  Level Estimated
09:20AM 51.9053 -16.7143 288° West  Level Estimated
09:21AM 51.9416 -16.9000 288° West  Level Estimated
09:22AM 51.9776 -17.0861 288° West  Level Estimated
09:23AM 52.0134 -17.2725 287° West  Level Estimated
09:24AM 52.0488 -17.4592 287° West  Level Estimated
09:25AM 52.0840 -17.6462 287° West  Level Estimated
09:26AM 52.1188 -17.8335 287° West  Level Estimated
09:27AM 52.1534 -18.0210 287° West  Level Estimated
09:28AM 52.1876 -18.2089 287° West  Level Estimated
09:29AM 52.2216 -18.3970 286° West  Level Estimated
09:30AM 52.2570 -18.5955 286° West  Level Estimated
09:31AM 52.2921 -18.7942 286° West  Level Estimated
09:32AM 52.3269 -18.9933 286° West  Level Estimated
09:33AM 52.3613 -19.1927 286° West  Level Estimated
09:33AM 51.0000 -20.0000 274° West 462 532 36,000  Level ETMS Enhanced Traffic Management System
09:34AM 52.3954 -19.3924 286° West  Level Estimated
09:35AM 52.4290 -19.5913 286° West  Level Estimated
09:36AM 52.4623 -19.7906 285° West  Level Estimated
09:37AM 52.4952 -19.9901 285° West  Level Estimated
09:38AM 52.5278 -20.1900 285° West  Level Estimated
09:39AM 51.0459 -21.2220 273° West 462 532 36,000  Level FlightAware Transoceanic
09:40AM 51.0523 -21.4259 273° West 462 532 36,000  Level FlightAware Transoceanic
09:41AM 51.0583 -21.6298 273° West 462 532 36,000  Level FlightAware Transoceanic
09:42AM 51.0640 -21.8338 272° West 462 532 36,000  Level FlightAware Transoceanic
09:43AM 51.0694 -22.0379 272° West 462 532 36,000  Level FlightAware Transoceanic
09:44AM 51.0743 -22.2419 272° West 462 532 36,000  Level FlightAware Transoceanic
09:45AM 51.0790 -22.4461 272° West 462 532 36,000  Level FlightAware Transoceanic
09:46AM 51.0832 -22.6502 272° West 462 532 36,000  Level FlightAware Transoceanic
09:47AM 51.0872 -22.8545 272° West 462 532 36,000  Level FlightAware Transoceanic
09:48AM 51.0907 -23.0587 272° West 462 532 36,000  Level FlightAware Transoceanic
09:49AM 51.0939 -23.2630 271° West 462 532 36,000  Level FlightAware Transoceanic
09:50AM 51.0968 -23.4673 271° West 462 532 36,000  Level FlightAware Transoceanic
09:51AM 51.0993 -23.6716 271° West 462 532 36,000  Level FlightAware Transoceanic
09:52AM 51.1014 -23.8759 271° West 462 532 36,000  Level FlightAware Transoceanic
09:53AM 51.1032 -24.0803 271° West 462 532 36,000  Level FlightAware Transoceanic
09:54AM 51.1046 -24.2846 271° West 462 532 36,000  Level FlightAware Transoceanic
09:55AM 51.1057 -24.4890 270° West 462 532 36,000  Level FlightAware Transoceanic
09:56AM 51.1064 -24.6934 270° West 462 532 36,000  Level FlightAware Transoceanic
09:57AM 51.1068 -24.8978 270° West 462 532 36,000  Level FlightAware Transoceanic
09:58AM 51.1068 -25.1022 270° West 462 532 36,000  Level FlightAware Transoceanic
09:59AM 51.1064 -25.3066 270° West 462 532 36,000  Level FlightAware Transoceanic
10:00AM 51.1057 -25.5110 270° West 462 532 36,000  Level FlightAware Transoceanic
10:01AM 51.1046 -25.7154 269° West 462 532 36,000  Level FlightAware Transoceanic
10:02AM 51.1032 -25.9197 269° West 462 532 36,000  Level FlightAware Transoceanic
10:03AM 51.1014 -26.1241 269° West 462 532 36,000  Level FlightAware Transoceanic
10:04AM 51.0993 -26.3284 269° West 462 532 36,000  Level FlightAware Transoceanic
10:05AM 51.0968 -26.5327 269° West 462 532 36,000  Level FlightAware Transoceanic
10:06AM 51.0939 -26.7370 269° West 462 532 36,000  Level FlightAware Transoceanic
10:07AM 51.0907 -26.9413 268° West 462 532 36,000  Level FlightAware Transoceanic
10:08AM 51.0872 -27.1455 268° West 462 532 36,000  Level FlightAware Transoceanic
10:09AM 51.0832 -27.3498 268° West 462 532 36,000  Level FlightAware Transoceanic
10:10AM 51.0790 -27.5539 268° West 462 532 36,000  Level FlightAware Transoceanic
10:11AM 51.0743 -27.7581 268° West 462 532 36,000  Level FlightAware Transoceanic
10:12AM 51.0694 -27.9621 268° West 462 532 36,000  Level FlightAware Transoceanic
10:13AM 51.0640 -28.1662 268° West 462 532 36,000  Level FlightAware Transoceanic
10:14AM 51.0583 -28.3702 267° West 462 532 36,000  Level FlightAware Transoceanic
10:15AM 51.0523 -28.5741 267° West 462 532 36,000  Level FlightAware Transoceanic
10:16AM 51.0459 -28.7780 267° West 462 532 36,000  Level FlightAware Transoceanic
10:17AM 51.0391 -28.9818 267° West 462 532 36,000  Level FlightAware Transoceanic
10:18AM 51.0320 -29.1856 267° West 462 532 36,000  Level FlightAware Transoceanic
10:19AM 51.0245 -29.3893 267° West 462 532 36,000  Level FlightAware Transoceanic
10:20AM 51.0167 -29.5929 266° West 462 532 36,000  Level FlightAware Transoceanic
10:21AM 51.0085 -29.7965 266° West 462 532 36,000  Level FlightAware Transoceanic
10:22AM 51.0002 -29.9962 266° West  Level FlightAware Approximate
10:23AM 50.9916 -30.1958 266° West  Level FlightAware Approximate
10:24AM 50.9717 -30.1874 257° West  Level FlightAware Approximate
10:25AM 50.9420 -30.3821 256° West  Level FlightAware Approximate
10:26AM 50.9119 -30.5765 256° West  Level FlightAware Approximate
10:27AM 50.8816 -30.7706 256° West  Level FlightAware Approximate
10:28AM 50.8509 -30.9645 256° West  Level FlightAware Approximate
10:29AM 50.8199 -31.1581 256° West  Level FlightAware Approximate
10:30AM 50.7886 -31.3515 256° West  Level FlightAware Approximate
10:31AM 50.7569 -31.5446 256° West  Level FlightAware Approximate
10:32AM 50.7249 -31.7374 255° West  Level FlightAware Approximate
10:33AM 50.6926 -31.9300 255° West  Level FlightAware Approximate
10:34AM 50.6600 -32.1223 255° West  Level FlightAware Approximate
10:35AM 50.6271 -32.3144 255° West  Level FlightAware Approximate
10:36AM 50.5939 -32.5062 255° West  Level FlightAware Approximate
10:37AM 50.5603 -32.6977 255° West  Level FlightAware Approximate
10:38AM 50.5265 -32.8889 255° West  Level FlightAware Approximate
10:39AM 50.4923 -33.0799 254° West  Level FlightAware Approximate
10:40AM 50.4578 -33.2705 254° West  Level FlightAware Approximate
10:41AM 50.4230 -33.4609 254° West  Level FlightAware Approximate
10:42AM 50.3879 -33.6511 254° West  Level FlightAware Approximate
10:43AM 50.3525 -33.8409 254° West  Level FlightAware Approximate
10:44AM 50.3167 -34.0304 254° West  Level FlightAware Approximate
10:45AM 50.2807 -34.2197 253° West  Level FlightAware Approximate
10:46AM 50.2444 -34.4087 253° West  Level FlightAware Approximate
10:47AM 50.2077 -34.5974 253° West  Level FlightAware Approximate
10:48AM 50.1708 -34.7858 253° West  Level FlightAware Approximate
10:49AM 50.1335 -34.9739 253° West  Level FlightAware Approximate
10:50AM 50.0960 -35.1617 253° West  Level FlightAware Approximate
10:51AM 50.0581 -35.3492 253° West  Level FlightAware Approximate
10:52AM 50.0199 -35.5364 252° West  Level FlightAware Approximate
10:53AM 49.9815 -35.7234 252° West  Level FlightAware Approximate
10:54AM 49.9427 -35.9100 252° West  Level FlightAware Approximate
10:55AM 49.9036 -36.0963 252° West  Level FlightAware Approximate
10:56AM 49.8643 -36.2823 252° West  Level FlightAware Approximate
10:57AM 49.8246 -36.4680 252° West  Level FlightAware Approximate
10:58AM 49.7847 -36.6535 252° West  Level FlightAware Approximate
10:59AM 49.7444 -36.8386 251° West  Level FlightAware Approximate
11:00AM 49.7039 -37.0233 251° West  Level FlightAware Approximate
11:01AM 49.6630 -37.2078 251° West  Level FlightAware Approximate
11:02AM 49.6219 -37.3920 251° West  Level FlightAware Approximate
11:03AM 49.5805 -37.5759 251° West  Level FlightAware Approximate
11:04AM 49.5388 -37.7594 251° West  Level FlightAware Approximate
11:05AM 49.4968 -37.9426 251° West  Level FlightAware Approximate
11:06AM 49.4545 -38.1255 250° West  Level FlightAware Approximate
11:07AM 49.4119 -38.3082 250° West  Level FlightAware Approximate
11:08AM 49.3690 -38.4904 250° West  Level FlightAware Approximate
11:09AM 49.3259 -38.6724 250° West  Level FlightAware Approximate
11:10AM 49.2824 -38.8541 250° West  Level FlightAware Approximate
11:11AM 49.2387 -39.0354 250° West  Level FlightAware Approximate
11:12AM 49.1947 -39.2164 250° West  Level FlightAware Approximate
11:13AM 49.1505 -39.3967 250° West  Level FlightAware Approximate
11:14AM 49.1060 -39.5768 249° West  Level FlightAware Approximate
11:15AM 49.0612 -39.7565 249° West  Level FlightAware Approximate
11:16AM 49.0162 -39.9358 249° West  Level FlightAware Approximate
11:17AM 48.9713 -40.1151 249° West  Level FlightAware Approximate
11:18AM 48.9262 -40.2941 249° West  Level FlightAware Approximate
11:19AM 48.8810 -40.4729 249° West  Level FlightAware Approximate
11:20AM 48.8354 -40.6513 249° West  Level FlightAware Approximate
11:21AM 48.7895 -40.8294 249° West  Level FlightAware Approximate
11:22AM 48.7434 -41.0071 249° West  Level FlightAware Approximate
11:23AM 48.6970 -41.1846 248° West  Level FlightAware Approximate
11:24AM 48.6508 -41.3619 249° West  Level FlightAware Approximate
11:25AM 48.6052 -41.5395 249° West  Level FlightAware Approximate
11:26AM 48.5593 -41.7168 249° West  Level FlightAware Approximate
11:27AM 48.5131 -41.8937 249° West  Level FlightAware Approximate
11:28AM 48.4666 -42.0703 248° West  Level FlightAware Approximate
11:29AM 48.4199 -42.2465 248° West  Level FlightAware Approximate
11:30AM 48.3729 -42.4225 248° West  Level FlightAware Approximate
11:31AM 48.3257 -42.5981 248° West  Level FlightAware Approximate
11:32AM 48.2781 -42.7734 248° West  Level FlightAware Approximate
11:33AM 48.2304 -42.9483 248° West  Level FlightAware Approximate
11:34AM 48.1823 -43.1230 248° West  Level FlightAware Approximate
11:35AM 48.1340 -43.2973 247° West  Level FlightAware Approximate
11:36AM 48.0854 -43.4713 247° West  Level FlightAware Approximate
11:37AM 48.0365 -43.6449 247° West  Level FlightAware Approximate
11:38AM 47.9874 -43.8182 247° West  Level FlightAware Approximate
11:39AM 47.9381 -43.9912 247° West  Level FlightAware Approximate
11:40AM 47.8884 -44.1639 247° West  Level FlightAware Approximate
11:41AM 47.8386 -44.3362 247° West  Level FlightAware Approximate
11:42AM 47.7884 -44.5082 247° West  Level FlightAware Approximate
11:43AM 47.7380 -44.6799 246° West  Level FlightAware Approximate
11:44AM 47.6874 -44.8512 246° West  Level FlightAware Approximate
11:45AM 47.6365 -45.0222 246° West  Level FlightAware Approximate
11:46AM 47.5853 -45.1929 246° West  Level FlightAware Approximate
11:47AM 47.5339 -45.3632 246° West  Level FlightAware Approximate
11:48AM 47.4822 -45.5332 246° West  Level FlightAware Approximate
11:49AM 47.4303 -45.7029 246° West  Level FlightAware Approximate
11:50AM 47.3781 -45.8722 246° West  Level FlightAware Approximate
11:51AM 47.3257 -46.0412 245° Southwest  Level FlightAware Approximate
11:52AM 47.2730 -46.2098 245° Southwest  Level FlightAware Approximate
11:53AM 47.2201 -46.3781 245° Southwest  Level FlightAware Approximate
11:54AM 47.1670 -46.5461 245° Southwest  Level FlightAware Approximate
11:55AM 47.1136 -46.7138 245° Southwest  Level FlightAware Approximate
11:56AM 47.0599 -46.8811 245° Southwest  Level FlightAware Approximate
11:57AM 47.0060 -47.0480 245° Southwest  Level FlightAware Approximate
11:58AM 46.9519 -47.2147 245° Southwest  Level FlightAware Approximate
11:59AM 46.8975 -47.3810 244° Southwest  Level FlightAware Approximate
12:00PM 46.8429 -47.5469 244° Southwest  Level FlightAware Approximate
12:01PM 46.7881 -47.7126 244° Southwest  Level FlightAware Approximate
12:02PM 46.7330 -47.8778 244° Southwest  Level FlightAware Approximate
12:03PM 46.6776 -48.0428 244° Southwest  Level FlightAware Approximate
12:04PM 46.6221 -48.2074 244° Southwest  Level FlightAware Approximate
12:04PM 46.0000 -49.9167 243° Southwest 490 564 36,000  Level Gander Center
12:05PM 46.5663 -48.3717 244° Southwest  Level FlightAware Approximate
12:06PM 46.5102 -48.5356 244° Southwest  Level FlightAware Approximate
12:07PM 46.4540 -48.6992 244° Southwest  Level FlightAware Approximate
12:08PM 46.3971 -48.8634 243° Southwest  Level FlightAware Approximate
12:09PM 46.3400 -49.0274 243° Southwest  Level FlightAware Approximate
12:10PM 45.9710 -51.1090 243° Southwest 486 559 36,000  Level FlightAware
12:11PM 45.9640 -51.3650 268° West 486 559 36,200 480 Climbing FlightAware
12:12PM 45.9590 -51.5050 267° West 475 547 37,000 900 Climbing FlightAware
12:13PM 45.9550 -51.6350 268° West 476 548 37,400 360 Climbing FlightAware
12:13PM 45.9510 -51.7550 267° West 477 549 37,600 360 Climbing FlightAware
12:14PM 45.9460 -51.9190 268° West 483 556 38,000 180 Climbing FlightAware
12:15PM 45.9400 -52.1130 268° West 485 558 38,000  Level FlightAware
12:16PM 45.9340 -52.2640 267° West 485 558 38,000  Level FlightAware
12:17PM 45.9230 -52.5610 267° West 485 558 38,000  Level FlightAware
12:18PM 45.9170 -52.6880 266° West 485 558 38,000  Level FlightAware
12:19PM 45.9130 -52.8190 268° West 484 557 38,000  Level FlightAware
12:19PM 45.9070 -52.9600 267° West 483 556 38,000  Level FlightAware
12:20PM 45.9010 -53.0820 266° West 482 555 38,000  Level FlightAware
12:21PM 45.8950 -53.2190 266° West 483 556 38,000  Level FlightAware
12:22PM 45.8890 -53.3640 267° West 482 555 38,000  Level FlightAware
12:22PM 45.8830 -53.4770 266° West 481 554 38,000  Level FlightAware
12:23PM 45.8770 -53.6140 266° West 481 554 38,000  Level FlightAware
12:24PM 45.8700 -53.7510 266° West 481 554 38,000  Level FlightAware
12:24PM 45.8630 -53.8880 266° West 480 552 38,000  Level FlightAware
12:25PM 45.8570 -54.0170 266° West 480 552 38,000  Level FlightAware
12:26PM 45.8490 -54.1560 265° West 478 550 38,000  Level FlightAware
12:26PM 45.8420 -54.2810 265° West 478 550 38,000  Level FlightAware
12:27PM 45.8360 -54.3930 266° West 477 549 38,000  Level FlightAware
12:28PM 45.8300 -54.5140 266° West 477 549 38,000  Level FlightAware
12:29PM 45.8200 -54.6750 265° West 476 548 38,000  Level FlightAware
12:29PM 45.8120 -54.8110 265° West 475 547 38,000  Level FlightAware
12:30PM 45.8040 -54.9470 265° West 473 544 38,000  Level FlightAware
12:31PM 45.7970 -55.0620 265° West 473 544 38,000  Level FlightAware
12:31PM 45.7890 -55.2020 265° West 472 543 38,000  Level FlightAware
12:32PM 45.7780 -55.3580 264° West 471 542 38,000  Level FlightAware
12:33PM 45.7700 -55.4960 265° West 471 542 38,000  Level FlightAware
12:34PM 45.7620 -55.6190 265° West 469 540 38,000  Level FlightAware
12:34PM 45.7540 -55.7340 264° West 468 539 38,000  Level FlightAware
12:35PM 45.7450 -55.8670 265° West 468 539 38,000  Level FlightAware
12:36PM 45.7370 -55.9890 265° West 467 537 38,000  Level FlightAware
12:36PM 45.7290 -56.0960 264° West 467 537 38,000  Level FlightAware
12:37PM 45.7160 -56.2800 264° West 466 536 38,000  Level FlightAware
12:38PM 45.7060 -56.4140 264° West 466 536 38,000  Level FlightAware
12:38PM 45.6990 -56.5110 264° West 466 536 38,000  Level FlightAware
12:39PM 45.6890 -56.6380 264° West 465 535 38,000  Level FlightAware
12:40PM 45.6740 -56.8310 264° West 464 534 38,000  Level FlightAware
12:41PM 45.6600 -56.9950 263° West 464 534 38,000  Level FlightAware
12:42PM 45.6520 -57.0880 263° West 464 534 38,000  Level FlightAware
12:43PM 45.6360 -57.3230 265° West 463 533 38,000  Level FlightAware
12:44PM 45.6250 -57.4530 263° West 463 533 38,000  Level FlightAware
12:44PM 45.6150 -57.5830 264° West 463 533 38,000  Level FlightAware
12:45PM 45.6090 -57.6480 263° West 463 533 38,000  Level FlightAware
12:45PM 45.5980 -57.7760 263° West 463 533 38,000  Level FlightAware
12:46PM 45.5880 -57.8970 263° West 465 535 38,000  Level FlightAware
12:47PM 45.5770 -58.0250 263° West 466 536 38,000  Level FlightAware
12:47PM 45.5640 -58.1660 263° West 467 537 38,000  Level FlightAware
12:48PM 45.5550 -58.2640 263° West 467 537 38,000  Level FlightAware
12:49PM 45.5430 -58.3990 263° West 467 537 38,000  Level FlightAware
12:49PM 45.5320 -58.5210 263° West 467 537 38,000  Level FlightAware
12:50PM 45.5220 -58.6230 262° West 469 540 38,000  Level FlightAware
12:51PM 45.5120 -58.7330 263° West 468 539 38,000  Level FlightAware
12:51PM 45.5000 -58.8660 263° West 467 537 38,000  Level FlightAware
12:52PM 45.4870 -59.0000 262° West 465 535 38,000  Level FlightAware
12:53PM 45.4750 -59.1210 262° West 463 533 38,000  Level FlightAware
12:53PM 45.4620 -59.2550 262° West 462 532 38,000  Level FlightAware
12:54PM 45.4520 -59.3570 262° West 460 529 38,000  Level FlightAware
12:55PM 45.4390 -59.4820 262° West 459 528 38,000  Level FlightAware
12:55PM 45.4270 -59.5960 262° West 458 527 38,000  Level FlightAware
12:56PM 45.4140 -59.7310 262° West 456 525 38,000  Level FlightAware
12:57PM 45.4010 -59.8490 261° West 454 522 38,000  Level FlightAware
12:57PM 45.3880 -59.9800 262° West 454 522 38,000  Level FlightAware
12:58PM 45.3740 -60.1040 261° West 453 521 38,000  Level FlightAware
12:59PM 45.3630 -60.2130 262° West 451 519 38,000  Level FlightAware
01:00PM 45.3490 -60.3420 261° West 448 516 38,000  Level FlightAware
01:00PM 45.3350 -60.4640 261° West 448 516 38,000  Level FlightAware
01:01PM 45.3220 -60.5870 261° West 447 514 38,000  Level FlightAware
01:02PM 45.3080 -60.7130 261° West 446 513 38,000  Level FlightAware
01:02PM 45.2970 -60.8090 261° West 446 513 38,000  Level FlightAware
01:03PM 45.2820 -60.9390 261° West 446 513 38,000  Level FlightAware
01:04PM 45.2680 -61.0610 261° West 447 514 38,000  Level FlightAware
01:05PM 45.2530 -61.1790 260° West 447 514 38,000  Level FlightAware
01:05PM 45.2420 -61.2700 260° West 447 514 38,000  Level FlightAware
01:06PM 45.2270 -61.3900 260° West 447 514 38,000  Level FlightAware
01:06PM 45.2200 -61.4440 260° West 447 514 38,000  Level FlightAware
01:07PM 45.2090 -61.5350 260° West 447 514 38,000  Level FlightAware
01:08PM 45.1900 -61.6830 260° West 447 514 38,000  Level FlightAware
01:09PM 45.1790 -61.7710 260° West 447 514 38,000  Level FlightAware
01:09PM 45.1650 -61.8840 260° West 447 514 38,000  Level FlightAware
01:10PM 45.1540 -61.9730 260° West 447 514 38,000  Level FlightAware
01:11PM 45.1400 -62.0900 260° West 447 514 38,000  Level FlightAware
01:11PM 45.1290 -62.1790 260° West 447 514 38,000  Level FlightAware
01:12PM 45.1100 -62.3280 260° West 447 514 38,000  Level FlightAware
01:13PM 45.0990 -62.4170 260° West 447 514 38,000  Level FlightAware
01:17PM 44.9750 -63.3790 260° West 437 503 38,000  Level FlightAware
01:18PM 44.9600 -63.4930 260° West 436 502 38,000  Level FlightAware
01:19PM 44.9440 -63.6040 259° West 435 501 38,000  Level FlightAware
01:19PM 44.9270 -63.7270 259° West 433 498 38,000  Level FlightAware
01:20PM 44.9110 -63.8400 259° West 432 497 38,000  Level FlightAware
01:21PM 44.8980 -63.9370 259° West 431 496 38,000  Level FlightAware
01:21PM 44.8780 -64.0760 259° West 430 495 38,000  Level FlightAware
01:22PM 44.8650 -64.1650 258° West 429 494 38,000  Level FlightAware
01:23PM 44.8480 -64.2790 258° West 429 494 38,000  Level FlightAware
01:23PM 44.8360 -64.3650 259° West 428 493 38,000  Level FlightAware
01:24PM 44.8230 -64.4490 258° West 428 493 38,000  Level FlightAware
01:24PM 44.8050 -64.5740 259° West 430 495 38,000  Level FlightAware
01:25PM 44.7880 -64.6900 258° West 430 495 38,000  Level FlightAware
01:26PM 44.7700 -64.8100 258° West 430 495 38,000  Level FlightAware
01:27PM 44.7530 -64.9170 257° West 431 496 38,000  Level FlightAware
01:27PM 44.7370 -65.0280 259° West 431 496 38,000  Level FlightAware
01:28PM 44.7190 -65.1460 258° West 431 496 38,000  Level FlightAware
01:28PM 44.7060 -65.2290 258° West 431 496 38,000  Level FlightAware
01:29PM 44.6880 -65.3440 258° West 431 496 38,000  Level FlightAware
01:30PM 44.6710 -65.4490 257° West 431 496 38,000  Level FlightAware
01:31PM 44.6520 -65.5750 258° West 430 495 38,000  Level FlightAware
01:31PM 44.6350 -65.6810 257° West 430 495 38,000  Level FlightAware
01:32PM 44.6170 -65.7900 257° West 430 495 38,000  Level FlightAware
01:32PM 44.6020 -65.8880 258° West 429 494 38,000  Level FlightAware
01:33PM 44.5810 -66.0180 257° West 429 494 38,000  Level FlightAware
01:34PM 44.5600 -66.1440 257° West 429 494 38,000  Level FlightAware
01:35PM 44.5370 -66.2880 257° West 429 494 38,000  Level FlightAware
01:36PM 44.5200 -66.3860 256° West 430 495 38,000  Level FlightAware
01:36PM 44.5020 -66.4960 257° West 429 494 38,000  Level FlightAware
01:37PM 44.4840 -66.6030 257° West 428 493 38,000  Level FlightAware
01:38PM 44.4650 -66.7170 257° West 428 493 38,000  Level FlightAware
01:38PM 44.4480 -66.8170 257° West 428 493 38,000  Level FlightAware
01:39PM 44.4290 -66.9260 256° West 428 493 38,000  Level FlightAware
01:40PM 44.4170 -67.0380 262° West 429 494 38,000 60 Level FlightAware
01:40PM 44.4140 -67.1560 268° West 433 498 38,100 360 Climbing FlightAware
01:41PM 44.4130 -67.2800 269° West 434 499 38,600 660 Climbing FlightAware
01:42PM 44.4120 -67.4010 269° West 433 498 39,100 600 Climbing FlightAware
01:42PM 44.4100 -67.5140 269° West 431 496 39,500 660 Climbing FlightAware
01:43PM 44.4080 -67.6120 268° West 425 489 40,000 360 Climbing FlightAware
01:44PM 44.4060 -67.7170 269° West 423 487 40,000  Level FlightAware
01:44PM 44.4040 -67.8420 269° West 422 486 40,000  Level FlightAware
01:45PM 44.4020 -67.9340 268° West 421 484 40,000  Level FlightAware
01:46PM 44.4000 -68.0540 269° West 421 484 40,000  Level FlightAware
01:46PM 44.3980 -68.1560 268° West 420 483 40,000  Level FlightAware
01:47PM 44.3950 -68.2700 268° West 420 483 40,000  Level FlightAware
01:48PM 44.3930 -68.3840 269° West 421 484 40,000  Level FlightAware
01:48PM 44.3900 -68.5020 268° West 422 486 40,000  Level FlightAware
01:49PM 44.3870 -68.6240 268° West 422 486 40,000  Level FlightAware
01:50PM 44.3850 -68.7080 268° West 423 487 40,000  Level FlightAware
01:50PM 44.3820 -68.8230 268° West 424 488 40,000  Level FlightAware
01:51PM 44.3780 -68.9480 267° West 426 490 40,000  Level FlightAware
01:52PM 44.3760 -69.0380 268° West 427 491 40,000  Level FlightAware
01:52PM 44.3720 -69.1570 267° West 428 493 40,000  Level FlightAware
01:53PM 44.3690 -69.2640 268° West 428 493 40,000  Level FlightAware
01:54PM 44.3650 -69.3810 267° West 428 493 40,000  Level FlightAware
01:55PM 44.3610 -69.5010 267° West 428 493 40,000  Level FlightAware
01:55PM 44.3570 -69.6100 267° West 425 489 40,000 -120 Level FlightAware
01:56PM 44.3530 -69.7310 267° West 423 487 39,900 -720 Descending FlightAware
01:57PM 44.3490 -69.8400 267° West 427 491 39,000 -1,200 Descending FlightAware
01:57PM 44.3450 -69.9430 267° West 430 495 38,400 -840 Descending FlightAware
01:58PM 44.3410 -70.0520 267° West 420 483 38,000 -300 Descending FlightAware
01:59PM 44.3370 -70.1630 267° West 413 475 38,000  Level FlightAware
01:59PM 44.3330 -70.2600 267° West 413 475 38,000  Level FlightAware
02:00PM 44.3280 -70.3820 267° West 413 475 38,000  Level FlightAware
02:01PM 44.3240 -70.4770 267° West 413 475 38,000  Level FlightAware
02:01PM 44.3190 -70.5950 267° West 413 475 38,000  Level FlightAware
02:02PM 44.3140 -70.7110 267° West 413 475 38,000  Level FlightAware
02:03PM 44.3100 -70.8080 267° West 413 475 38,000  Level FlightAware
02:03PM 44.3050 -70.9230 267° West 413 475 38,000  Level FlightAware
02:04PM 44.3000 -71.0300 266° West 413 475 38,000  Level FlightAware
02:05PM 44.2950 -71.1430 267° West 412 474 38,000  Level FlightAware
02:05PM 44.2900 -71.2470 266° West 411 473 38,000  Level FlightAware
02:06PM 44.2860 -71.3300 266° West 412 474 38,000  Level FlightAware
02:07PM 44.2800 -71.4490 266° West 411 473 38,000  Level FlightAware
02:07PM 44.2740 -71.5550 266° West 410 472 38,000  Level FlightAware
02:08PM 44.2680 -71.6750 266° West 410 472 38,000  Level FlightAware
02:09PM 44.2620 -71.7890 266° West 409 471 38,000  Level FlightAware
02:09PM 44.2580 -71.8690 266° West 410 472 38,000  Level FlightAware
02:10PM 44.2510 -71.9890 265° West 410 472 38,000  Level FlightAware
02:11PM 44.2420 -72.1540 266° West 409 471 38,000  Level FlightAware
02:12PM 44.2360 -72.2610 266° West 409 471 38,000  Level FlightAware
02:13PM 44.2280 -72.3860 265° West 407 468 38,000  Level FlightAware
02:13PM 44.2220 -72.4890 265° West 406 467 38,000  Level FlightAware
02:14PM 44.2160 -72.5980 266° West 405 466 38,000  Level FlightAware
02:15PM 44.2100 -72.6890 265° West 405 466 38,000  Level FlightAware
02:15PM 44.2030 -72.8110 265° West 405 466 38,000  Level FlightAware
02:16PM 44.1960 -72.9160 265° West 405 466 38,000  Level FlightAware
02:17PM 44.1900 -73.0140 265° West 404 465 38,000  Level FlightAware
02:17PM 44.1840 -73.1060 265° West 404 465 38,000  Level FlightAware
02:18PM 44.1770 -73.2150 265° West 404 465 38,000  Level FlightAware
02:19PM 44.1680 -73.3500 265° West 405 466 38,000  Level FlightAware
02:20PM 44.1600 -73.4650 265° West 405 466 38,000  Level FlightAware
02:20PM 44.1530 -73.5690 265° West 405 466 38,000  Level FlightAware
02:21PM 44.1460 -73.6700 265° West 405 466 38,000  Level FlightAware
02:22PM 44.1370 -73.7880 264° West 405 466 38,000  Level FlightAware
02:22PM 44.1300 -73.8940 265° West 405 466 38,000  Level FlightAware
02:23PM 44.1210 -74.0110 264° West 406 467 38,000  Level FlightAware
02:24PM 44.1140 -74.1150 265° West 406 467 38,000  Level FlightAware
02:24PM 44.1050 -74.2310 264° West 406 467 38,000  Level FlightAware
02:25PM 44.0970 -74.3350 264° West 407 468 38,000  Level FlightAware
02:26PM 44.0880 -74.4520 264° West 407 468 38,000  Level FlightAware
02:27PM 44.0800 -74.5570 264° West 407 468 38,000  Level FlightAware
02:27PM 44.0710 -74.6750 264° West 407 468 38,000  Level FlightAware
02:28PM 44.0620 -74.7790 263° West 407 468 38,000  Level FlightAware
02:29PM 44.0540 -74.8820 264° West 407 468 38,000  Level FlightAware
02:29PM 44.0460 -74.9870 264° West 407 468 38,000  Level FlightAware
02:30PM 44.0350 -75.1210 264° West 408 470 38,000  Level FlightAware
02:31PM 44.0250 -75.2350 263° West 408 470 38,000  Level FlightAware
02:32PM 44.0160 -75.3410 263° West 409 471 38,000  Level FlightAware
02:32PM 44.0070 -75.4480 263° West 409 471 38,000  Level FlightAware
02:33PM 43.9980 -75.5540 263° West 409 471 38,000  Level FlightAware
02:34PM 43.9870 -75.6740 263° West 411 473 38,000  Level FlightAware
02:34PM 43.9780 -75.7830 263° West 413 475 38,000  Level FlightAware
02:35PM 43.9700 -75.8720 263° West 414 476 38,000  Level FlightAware
02:36PM 43.9600 -75.9850 263° West 416 479 38,000  Level FlightAware
02:36PM 43.9530 -76.0930 265° West 416 479 38,000  Level FlightAware
02:37PM 43.9450 -76.2010 264° West 415 478 38,000  Level FlightAware
02:38PM 43.9380 -76.2860 264° West 415 478 38,000  Level FlightAware
02:38PM 43.9300 -76.3940 264° West 415 478 38,000  Level FlightAware
02:39PM 43.9210 -76.5010 263° West 415 478 38,000  Level FlightAware
02:40PM 43.9130 -76.6070 264° West 414 476 38,000  Level FlightAware
02:40PM 43.9050 -76.7040 264° West 414 476 38,000  Level FlightAware
02:41PM 43.8960 -76.8180 264° West 415 478 38,000  Level FlightAware
02:42PM 43.8880 -76.9170 264° West 416 479 38,000  Level FlightAware
02:42PM 43.8790 -77.0250 263° West 416 479 38,000  Level FlightAware
02:43PM 43.8700 -77.1290 263° West 415 478 38,000  Level FlightAware
02:44PM 43.8610 -77.2360 263° West 415 478 38,000  Level FlightAware
02:44PM 43.8510 -77.3520 263° West 416 479 38,000  Level FlightAware
02:45PM 43.8420 -77.4540 263° West 417 480 38,000  Level FlightAware
02:46PM 43.8290 -77.6010 263° West 418 481 38,000  Level FlightAware
02:47PM 43.8190 -77.7190 263° West 418 481 38,000  Level FlightAware
02:47PM 43.8080 -77.8380 263° West 419 482 38,000  Level FlightAware
02:48PM 43.7980 -77.9450 263° West 420 483 38,000  Level FlightAware
02:49PM 43.7870 -78.0610 263° West 420 483 38,000  Level FlightAware
02:49PM 43.7770 -78.1680 263° West 421 484 38,000  Level FlightAware
02:50PM 43.7670 -78.2820 263° West 422 486 38,000  Level FlightAware
02:51PM 43.7560 -78.3970 262° West 424 488 38,000  Level FlightAware
02:51PM 43.7450 -78.5040 262° West 424 488 38,000  Level FlightAware
02:52PM 43.7340 -78.6230 263° West 424 488 38,000  Level FlightAware
02:53PM 43.7230 -78.7320 262° West 425 489 38,000  Level FlightAware
02:53PM 43.7140 -78.8260 262° West 426 490 38,000  Level FlightAware
02:54PM 43.7020 -78.9400 262° West 428 493 38,000  Level FlightAware
02:55PM 43.6900 -79.0600 262° West 431 496 38,000 360 Level FlightAware
02:56PM 43.6800 -79.1580 262° West 432 497 38,500 600 Climbing FlightAware
02:56PM 43.6690 -79.2630 262° West 434 499 38,800 720 Climbing FlightAware
02:57PM 43.6570 -79.3770 262° West 428 493 39,500 540 Climbing FlightAware
02:58PM 43.6460 -79.4860 262° West 437 503 39,600 180 Climbing FlightAware
02:58PM 43.6340 -79.6010 262° West 440 506 39,800 240 Climbing FlightAware
02:59PM 43.6200 -79.7270 261° West 443 510 40,000 120 Climbing FlightAware
03:00PM 43.6080 -79.8370 261° West 451 519 40,000  Level FlightAware
03:00PM 43.5940 -79.9670 262° West 454 522 40,000  Level FlightAware
03:01PM 43.5820 -80.0740 261° West 456 525 40,000  Level FlightAware
03:02PM 43.5680 -80.2040 262° West 462 532 40,000  Level FlightAware
03:03PM 43.5490 -80.3720 261° West 468 539 40,000  Level FlightAware
03:03PM 43.5340 -80.4980 261° West 472 543 40,000  Level FlightAware
03:04PM 43.5200 -80.6180 261° West 477 549 40,000  Level FlightAware
03:05PM 43.5070 -80.7280 261° West 482 555 40,000  Level FlightAware
03:05PM 43.4930 -80.8540 261° West 484 557 40,000  Level FlightAware
03:06PM 43.4780 -80.9770 261° West 487 560 40,000  Level FlightAware
03:07PM 43.4620 -81.1060 260° West 490 564 40,000  Level FlightAware
03:08PM 43.4460 -81.2410 261° West 491 565 40,000  Level FlightAware
03:08PM 43.4360 -81.3250 261° West 492 566 40,000  Level FlightAware
03:09PM 43.4200 -81.4500 260° West 496 571 40,000  Level FlightAware
03:09PM 43.4040 -81.5800 260° West 498 573 40,000  Level FlightAware
03:10PM 43.3890 -81.6990 260° West 501 577 40,000  Level FlightAware
03:11PM 43.3730 -81.8250 260° West 504 580 40,000  Level FlightAware
03:11PM 43.3570 -81.9560 261° West 505 581 40,000  Level FlightAware
03:12PM 43.3400 -82.0830 260° West 508 585 40,000  Level FlightAware
03:13PM 43.3210 -82.2290 260° West 507 583 40,000  Level FlightAware
03:14PM 43.3030 -82.3670 260° West 499 574 40,000  Level FlightAware
03:14PM 43.2820 -82.5270 260° West 501 577 40,000  Level FlightAware
03:15PM 43.2650 -82.6530 260° West 499 574 40,000 -120 Level FlightAware
03:16PM 43.2310 -82.8090 253° West 506 582 39,900 -720 Descending FlightAware
03:17PM 43.1970 -82.9340 250° West 507 583 39,000 -1,380 Descending FlightAware
03:17PM 43.1590 -83.0670 249° West 521 600 38,000 -840 Descending FlightAware
03:18PM 43.1260 -83.1850 249° West 520 598 37,900 -420 Descending FlightAware
03:19PM 43.0880 -83.3190 249° West 511 588 37,500 -780 Descending FlightAware
03:19PM 43.0520 -83.4490 249° West 518 596 36,800 -960 Descending FlightAware
03:20PM 43.0170 -83.5730 249° West 511 588 36,200 -1,080 Descending FlightAware
03:21PM 42.9840 -83.6860 248° West 491 565 35,400 -1,680 Descending FlightAware
03:22PM 42.9750 -83.8560 266° West 441 507 33,500 -1,980 Descending FlightAware
03:22PM 42.9980 -83.9760 285° West 446 513 32,000 -1,140 Descending FlightAware
03:23PM 43.0190 -84.0810 285° West 453 521 32,000  Level FlightAware
03:24PM 43.0380 -84.1780 285° West 453 521 32,000  Level FlightAware
03:24PM 43.0540 -84.2930 281° West 470 541 32,000  Level FlightAware
03:25PM 43.0280 -84.4320 256° West 501 577 32,000  Level FlightAware
03:26PM 42.9780 -84.5080 228° Southwest 518 596 32,000  Level FlightAware
03:26PM 42.8980 -84.5990 220° Southwest 506 582 32,000  Level FlightAware
03:27PM 42.8700 -84.7160 252° West 479 551 32,000  Level FlightAware
03:28PM 42.8580 -84.8340 262° West 479 551 32,000  Level FlightAware
03:29PM 42.8440 -84.9670 262° West 479 551 32,000  Level FlightAware
03:29PM 42.8310 -85.0930 262° West 478 550 32,000  Level FlightAware
03:30PM 42.8180 -85.2100 261° West 478 550 32,000  Level FlightAware
03:30PM 42.8070 -85.3190 262° West 479 551 32,000 -960 Level FlightAware
03:31PM 42.7950 -85.4260 261° West 474 545 30,900 -2,400 Descending FlightAware
03:32PM 42.7770 -85.5530 259° West 483 556 28,900 -2,520 Descending FlightAware
03:32PM 42.7560 -85.6720 257° West 480 552 27,400 -2,160 Descending FlightAware
03:33PM 42.7320 -85.8010 256° West 468 539 25,900 -2,040 Descending FlightAware
03:34PM 42.7120 -85.9130 256° West 459 528 24,600 -2,040 Descending FlightAware
03:35PM 42.6920 -86.0230 256° West 450 518 23,200 -2,100 Descending FlightAware
03:35PM 42.6710 -86.1380 256° West 441 507 21,800 -2,100 Descending FlightAware
03:36PM 42.6570 -86.2090 255° West 437 503 20,800 -1,500 Descending FlightAware
03:36PM 42.6350 -86.3280 256° West 431 496 20,000 -1,320 Descending FlightAware
03:37PM 42.6140 -86.4420 256° West 416 479 18,900 -1,800 Descending FlightAware
03:38PM 42.5990 -86.5200 255° West 411 473 17,800 -2,160 Descending FlightAware
03:38PM 42.5800 -86.6250 256° West 404 465 16,300 -1,980 Descending FlightAware
03:39PM 42.5580 -86.7290 254° West 394 453 15,000 -1,920 Descending FlightAware
03:40PM 42.5380 -86.8100 251° West 388 447 13,800 -1,920 Descending FlightAware
03:40PM 42.5110 -86.9070 249° West 377 434 12,600 -1,920 Descending FlightAware
03:41PM 42.4870 -86.9940 250° West 371 427 11,200 -1,980 Descending FlightAware
03:42PM 42.4620 -87.0860 250° West 363 418 9,900 -1,440 Descending FlightAware
03:42PM 42.4520 -87.1230 250° West 360 414 9,800 -180 Descending FlightAware
03:42PM 42.4390 -87.1700 249° West 360 414 9,800  Level FlightAware
03:43PM 42.4220 -87.2350 251° West 325 374 9,800 -120 Level FlightAware
03:43PM 42.4090 -87.2790 248° West 303 349 9,700 -660 Descending FlightAware
03:44PM 42.4020 -87.3060 251° West 299 344 9,400 -1,080 Descending FlightAware
03:44PM 42.3870 -87.3590 249° West 297 342 8,900 -720 Descending FlightAware
03:45PM 42.3760 -87.3990 250° West 297 342 8,800 -120 Descending FlightAware
03:45PM 42.3630 -87.4480 250° West 297 342 8,800 -180 Level FlightAware
03:45PM 42.3570 -87.4820 257° West 286 329 8,700 -540 Descending FlightAware
03:46PM 42.3600 -87.5300 275° West 270 311 8,400 -720 Descending FlightAware
03:46PM 42.3640 -87.5810 276° West 254 292 8,000 -840 Descending FlightAware
03:47PM 42.3660 -87.6050 276° West 246 283 7,800 -360 Descending FlightAware
03:47PM 42.3680 -87.6370 275° West 225 259 7,800  Level FlightAware
03:47PM 42.3690 -87.6710 272° West 225 259 7,800  Level FlightAware
03:48PM 42.3430 -87.6730 183° South 209 241 7,800  Level FlightAware
03:48PM 42.3200 -87.6560 151° Southeast 206 237 7,800  Level FlightAware
03:49PM 42.3030 -87.6360 139° Southeast 206 237 7,800 -300 Level FlightAware
03:49PM 42.2870 -87.6180 140° Southeast 204 235 7,600 -840 Descending FlightAware
03:49PM 42.2760 -87.6040 137° Southeast 204 235 7,300 -1,140 Descending FlightAware
03:50PM 42.2560 -87.5800 138° Southeast 202 232 6,800 -1,140 Descending FlightAware
03:50PM 42.2410 -87.5680 149° Southeast 204 235 6,400 -1,080 Descending FlightAware
03:50PM 42.2320 -87.5670 175° South 205 236 6,300 -1,020 Descending FlightAware
03:50PM 42.2190 -87.5770 210° Southwest 206 237 6,000 -1,140 Descending FlightAware
03:51PM 42.2130 -87.5880 234° Southwest 207 238 5,800 -1,080 Descending FlightAware
03:51PM 42.2030 -87.6240 249° West 207 238 5,300 -960 Descending FlightAware
03:51PM 42.1930 -87.6570 248° West 203 234 4,900 -720 Descending FlightAware
03:52PM 42.1840 -87.6870 248° West 200 230 4,700 -600 Descending FlightAware
03:52PM 42.1720 -87.7030 225° Southwest 195 224 4,500 -660 Descending FlightAware
03:53PM 42.1530 -87.7240 219° Southwest 191 220 4,200 -540 Descending FlightAware
03:53PM 42.1340 -87.7460 221° Southwest 189 217 4,000 -720 Descending FlightAware
03:54PM 42.1190 -87.7620 218° Southwest 187 215 3,600 -1,200 Descending FlightAware
03:54PM 42.1020 -87.7810 220° Southwest 188 216 3,100 -1,020 Descending FlightAware
03:54PM 42.0830 -87.8020 219° Southwest 190 219 2,700 -960 Descending FlightAware
03:55PM 42.0730 -87.8130 219° Southwest 192 221 2,400 -1,080 Descending FlightAware
03:55PM 42.0570 -87.8310 220° Southwest 184 212 2,000 -960 Descending FlightAware
03:56PM 42.0400 -87.8500 220° Southwest 161 185 1,600 -900 Descending FlightAware
03:56PM 42.0320 -87.8590 220° Southwest 153 176 1,400 -1,020 Descending FlightAware
03:56PM 42.0160 -87.8760 218° Southwest 149 171 900 -960 Descending FlightAware
03:57PM 42.0080 -87.8850 220° Southwest 144 166 700 -780 Descending FlightAware
03:57PM 41.9950 -87.8990 219° Southwest 150 173 400 -780 Descending FlightAware
03:57PM 41.9850 -87.9100 219° Southwest 46 53 -840 Descending FlightAware
03:58PM 41.9820 -87.9140 225° Southwest 46 53  Level FlightAware
03:59PM 41.9820 -87.9110 90° East 21 24  Level FlightAware
03:59PM 41.9820 -87.9100 90° East 32 37  Level FlightAware